sensor_id;sensor_type;location;lat;lon;timestamp;P1;durP1;ratioP1;P2;durP2;ratioP2
56083;SDS011;41958;52.416;13.428;2022-09-30T00:01:58;8.23;;;5.88;;
56083;SDS011;41958;52.416;13.428;2022-09-30T00:04:23;9.45;;;6.22;;
56083;SDS011;41958;52.416;13.428;2022-09-30T00:06:50;7.57;;;5.88;;
56083;SDS011;41958;52.416;13.428;2022-09-30T00:09:17;8.10;;;6.00;;
56083;SDS011;41958;52.416;13.428;2022-09-30T00:11:43;8.88;;;6.35;;
56083;SDS011;41958;52.416;13.428;2022-09-30T00:14:12;8.82;;;5.85;;
56083;SDS011;41958;52.416;13.428;2022-09-30T00:16:41;9.75;;;6.50;;
56083;SDS011;41958;52.416;13.428;2022-09-30T00:19:06;8.85;;;6.13;;
56083;SDS011;41958;52.416;13.428;2022-09-30T00:21:31;10.55;;;5.93;;
56083;SDS011;41958;52.416;13.428;2022-09-30T00:24:00;8.82;;;6.30;;
56083;SDS011;41958;52.416;13.428;2022-09-30T00:26:27;9.07;;;6.18;;
56083;SDS011;41958;52.416;13.428;2022-09-30T00:28:53;10.43;;;6.55;;
56083;SDS011;41958;52.416;13.428;2022-09-30T00:31:21;7.53;;;5.75;;
56083;SDS011;41958;52.416;13.428;2022-09-30T00:33:47;8.57;;;6.20;;
56083;SDS011;41958;52.416;13.428;2022-09-30T00:36:30;8.88;;;5.80;;
56083;SDS011;41958;52.416;13.428;2022-09-30T00:39:00;9.75;;;5.93;;
56083;SDS011;41958;52.416;13.428;2022-09-30T00:41:26;10.35;;;5.63;;
56083;SDS011;41958;52.416;13.428;2022-09-30T00:43:52;8.32;;;5.63;;
56083;SDS011;41958;52.416;13.428;2022-09-30T00:46:25;8.88;;;6.28;;
56083;SDS011;41958;52.416;13.428;2022-09-30T00:48:55;9.13;;;6.38;;
56083;SDS011;41958;52.416;13.428;2022-09-30T00:51:35;9.27;;;5.28;;
56083;SDS011;41958;52.416;13.428;2022-09-30T00:54:11;8.98;;;6.30;;
56083;SDS011;41958;52.416;13.428;2022-09-30T00:56:43;10.23;;;6.57;;
56083;SDS011;41958;52.416;13.428;2022-09-30T00:59:14;10.45;;;7.55;;
56083;SDS011;41958;52.416;13.428;2022-09-30T01:01:42;7.85;;;5.97;;
56083;SDS011;41958;52.416;13.428;2022-09-30T01:04:11;10.93;;;7.40;;
56083;SDS011;41958;52.416;13.428;2022-09-30T01:06:40;10.57;;;7.25;;
56083;SDS011;41958;52.416;13.428;2022-09-30T01:09:05;11.95;;;7.88;;
56083;SDS011;41958;52.416;13.428;2022-09-30T01:11:31;13.20;;;8.13;;
56083;SDS011;41958;52.416;13.428;2022-09-30T01:14:01;10.18;;;6.93;;
56083;SDS011;41958;52.416;13.428;2022-09-30T01:21:58;11.63;;;7.10;;
56083;SDS011;41958;52.416;13.428;2022-09-30T01:24:55;8.98;;;6.55;;
56083;SDS011;41958;52.416;13.428;2022-09-30T01:27:41;10.82;;;6.45;;
56083;SDS011;41958;52.416;13.428;2022-09-30T01:30:22;11.20;;;7.45;;
56083;SDS011;41958;52.416;13.428;2022-09-30T01:33:07;11.05;;;6.40;;
56083;SDS011;41958;52.416;13.428;2022-09-30T01:35:48;10.23;;;6.75;;
56083;SDS011;41958;52.416;13.428;2022-09-30T01:38:48;10.10;;;6.18;;
56083;SDS011;41958;52.416;13.428;2022-09-30T01:44:17;9.67;;;6.40;;
56083;SDS011;41958;52.416;13.428;2022-09-30T01:46:56;9.75;;;6.32;;
56083;SDS011;41958;52.416;13.428;2022-09-30T01:49:29;8.15;;;6.10;;
56083;SDS011;41958;52.416;13.428;2022-09-30T01:52:08;7.15;;;5.90;;
56083;SDS011;41958;52.416;13.428;2022-09-30T01:54:42;9.52;;;6.20;;
56083;SDS011;41958;52.416;13.428;2022-09-30T01:59:44;8.30;;;5.55;;
56083;SDS011;41958;52.416;13.428;2022-09-30T02:02:23;10.38;;;7.55;;
56083;SDS011;41958;52.416;13.428;2022-09-30T02:04:56;10.60;;;6.97;;
56083;SDS011;41958;52.416;13.428;2022-09-30T02:07:37;8.95;;;6.35;;
56083;SDS011;41958;52.416;13.428;2022-09-30T02:10:15;8.93;;;6.03;;
56083;SDS011;41958;52.416;13.428;2022-09-30T02:12:48;7.82;;;6.07;;
56083;SDS011;41958;52.416;13.428;2022-09-30T02:15:21;8.23;;;5.93;;
56083;SDS011;41958;52.416;13.428;2022-09-30T02:17:53;8.68;;;6.10;;
56083;SDS011;41958;52.416;13.428;2022-09-30T02:20:23;10.02;;;7.03;;
56083;SDS011;41958;52.416;13.428;2022-09-30T02:22:52;9.38;;;6.18;;
56083;SDS011;41958;52.416;13.428;2022-09-30T02:25:34;9.38;;;6.72;;
56083;SDS011;41958;52.416;13.428;2022-09-30T02:28:04;9.77;;;6.30;;
56083;SDS011;41958;52.416;13.428;2022-09-30T02:30:33;9.65;;;6.63;;
56083;SDS011;41958;52.416;13.428;2022-09-30T02:33:01;10.15;;;5.80;;
56083;SDS011;41958;52.416;13.428;2022-09-30T02:35:34;8.77;;;5.82;;
56083;SDS011;41958;52.416;13.428;2022-09-30T02:38:02;10.85;;;6.18;;
56083;SDS011;41958;52.416;13.428;2022-09-30T02:40:38;11.02;;;6.53;;
56083;SDS011;41958;52.416;13.428;2022-09-30T02:43:08;8.18;;;5.97;;
56083;SDS011;41958;52.416;13.428;2022-09-30T02:45:38;9.73;;;6.40;;
56083;SDS011;41958;52.416;13.428;2022-09-30T02:48:14;10.50;;;6.15;;
56083;SDS011;41958;52.416;13.428;2022-09-30T02:50:57;7.78;;;6.38;;
56083;SDS011;41958;52.416;13.428;2022-09-30T02:53:33;9.40;;;6.13;;
56083;SDS011;41958;52.416;13.428;2022-09-30T02:58:50;8.88;;;5.90;;
56083;SDS011;41958;52.416;13.428;2022-09-30T03:01:20;8.07;;;6.00;;
56083;SDS011;41958;52.416;13.428;2022-09-30T03:03:49;8.48;;;5.93;;
56083;SDS011;41958;52.416;13.428;2022-09-30T03:06:17;10.57;;;6.10;;
56083;SDS011;41958;52.416;13.428;2022-09-30T03:08:43;9.18;;;5.70;;
56083;SDS011;41958;52.416;13.428;2022-09-30T03:11:11;10.60;;;5.65;;
56083;SDS011;41958;52.416;13.428;2022-09-30T03:25:31;7.53;;;5.50;;
56083;SDS011;41958;52.416;13.428;2022-09-30T03:28:15;8.30;;;5.82;;
56083;SDS011;41958;52.416;13.428;2022-09-30T03:30:46;8.35;;;6.03;;
56083;SDS011;41958;52.416;13.428;2022-09-30T03:33:22;9.18;;;5.78;;
56083;SDS011;41958;52.416;13.428;2022-09-30T03:38:45;9.68;;;5.57;;
56083;SDS011;41958;52.416;13.428;2022-09-30T03:43:48;9.05;;;5.75;;
56083;SDS011;41958;52.416;13.428;2022-09-30T03:46:26;10.57;;;5.97;;
56083;SDS011;41958;52.416;13.428;2022-09-30T03:49:02;9.32;;;6.05;;
56083;SDS011;41958;52.416;13.428;2022-09-30T03:51:30;8.57;;;5.80;;
56083;SDS011;41958;52.416;13.428;2022-09-30T03:53:58;9.32;;;5.90;;
56083;SDS011;41958;52.416;13.428;2022-09-30T03:56:24;9.07;;;5.32;;
56083;SDS011;41958;52.416;13.428;2022-09-30T03:58:51;8.30;;;5.53;;
56083;SDS011;41958;52.416;13.428;2022-09-30T04:01:17;8.18;;;5.43;;
56083;SDS011;41958;52.416;13.428;2022-09-30T04:03:45;7.68;;;5.03;;
56083;SDS011;41958;52.416;13.428;2022-09-30T04:06:11;8.07;;;5.50;;
56083;SDS011;41958;52.416;13.428;2022-09-30T04:08:37;8.57;;;5.40;;
56083;SDS011;41958;52.416;13.428;2022-09-30T04:11:03;9.35;;;5.15;;
56083;SDS011;41958;52.416;13.428;2022-09-30T04:13:28;6.70;;;4.45;;
56083;SDS011;41958;52.416;13.428;2022-09-30T04:15:54;7.78;;;5.05;;
56083;SDS011;41958;52.416;13.428;2022-09-30T04:18:19;9.55;;;5.30;;
56083;SDS011;41958;52.416;13.428;2022-09-30T04:20:44;6.93;;;5.40;;
56083;SDS011;41958;52.416;13.428;2022-09-30T04:23:09;6.68;;;4.57;;
56083;SDS011;41958;52.416;13.428;2022-09-30T04:25:35;7.50;;;5.10;;
56083;SDS011;41958;52.416;13.428;2022-09-30T04:28:00;7.65;;;5.15;;
56083;SDS011;41958;52.416;13.428;2022-09-30T04:30:25;6.85;;;4.68;;
56083;SDS011;41958;52.416;13.428;2022-09-30T04:32:51;7.60;;;5.28;;
56083;SDS011;41958;52.416;13.428;2022-09-30T04:35:16;7.18;;;4.65;;
56083;SDS011;41958;52.416;13.428;2022-09-30T04:37:42;7.45;;;4.90;;
56083;SDS011;41958;52.416;13.428;2022-09-30T04:40:08;8.30;;;5.45;;
56083;SDS011;41958;52.416;13.428;2022-09-30T04:42:34;7.60;;;4.72;;
56083;SDS011;41958;52.416;13.428;2022-09-30T04:45:03;8.68;;;5.45;;
56083;SDS011;41958;52.416;13.428;2022-09-30T04:47:28;10.07;;;5.40;;
56083;SDS011;41958;52.416;13.428;2022-09-30T04:49:54;7.53;;;5.20;;
56083;SDS011;41958;52.416;13.428;2022-09-30T04:52:19;8.27;;;5.90;;
56083;SDS011;41958;52.416;13.428;2022-09-30T04:54:45;9.73;;;5.90;;
56083;SDS011;41958;52.416;13.428;2022-09-30T04:57:10;9.85;;;5.68;;
56083;SDS011;41958;52.416;13.428;2022-09-30T04:59:36;8.63;;;6.03;;
56083;SDS011;41958;52.416;13.428;2022-09-30T05:02:01;10.82;;;6.20;;
56083;SDS011;41958;52.416;13.428;2022-09-30T05:04:26;9.45;;;5.80;;
56083;SDS011;41958;52.416;13.428;2022-09-30T05:06:51;9.13;;;6.03;;
56083;SDS011;41958;52.416;13.428;2022-09-30T05:09:16;10.23;;;7.40;;
56083;SDS011;41958;52.416;13.428;2022-09-30T05:11:42;10.63;;;6.28;;
56083;SDS011;41958;52.416;13.428;2022-09-30T05:14:07;9.57;;;6.43;;
56083;SDS011;41958;52.416;13.428;2022-09-30T05:16:33;10.20;;;6.18;;
56083;SDS011;41958;52.416;13.428;2022-09-30T05:18:58;11.02;;;6.57;;
56083;SDS011;41958;52.416;13.428;2022-09-30T05:21:23;14.45;;;7.97;;
56083;SDS011;41958;52.416;13.428;2022-09-30T05:23:49;15.05;;;8.00;;
56083;SDS011;41958;52.416;13.428;2022-09-30T05:26:14;14.93;;;7.63;;
56083;SDS011;41958;52.416;13.428;2022-09-30T05:28:40;13.05;;;7.50;;
56083;SDS011;41958;52.416;13.428;2022-09-30T05:31:06;12.93;;;6.97;;
56083;SDS011;41958;52.416;13.428;2022-09-30T05:33:32;15.02;;;7.85;;
56083;SDS011;41958;52.416;13.428;2022-09-30T05:35:59;11.40;;;6.47;;
56083;SDS011;41958;52.416;13.428;2022-09-30T05:38:32;11.10;;;6.57;;
56083;SDS011;41958;52.416;13.428;2022-09-30T05:41:04;8.38;;;5.72;;
56083;SDS011;41958;52.416;13.428;2022-09-30T05:43:31;8.35;;;6.00;;
56083;SDS011;41958;52.416;13.428;2022-09-30T05:45:57;12.73;;;7.03;;
56083;SDS011;41958;52.416;13.428;2022-09-30T05:48:22;8.23;;;5.82;;
56083;SDS011;41958;52.416;13.428;2022-09-30T05:50:52;9.48;;;6.63;;
56083;SDS011;41958;52.416;13.428;2022-09-30T05:53:21;10.00;;;6.70;;
56083;SDS011;41958;52.416;13.428;2022-09-30T05:55:47;11.98;;;6.22;;
56083;SDS011;41958;52.416;13.428;2022-09-30T05:58:14;10.43;;;6.10;;
56083;SDS011;41958;52.416;13.428;2022-09-30T06:00:44;9.48;;;6.50;;
56083;SDS011;41958;52.416;13.428;2022-09-30T06:03:10;7.90;;;5.72;;
56083;SDS011;41958;52.416;13.428;2022-09-30T06:05:36;12.70;;;6.55;;
56083;SDS011;41958;52.416;13.428;2022-09-30T06:08:02;8.18;;;6.00;;
56083;SDS011;41958;52.416;13.428;2022-09-30T06:10:28;8.85;;;6.15;;
56083;SDS011;41958;52.416;13.428;2022-09-30T06:12:53;14.63;;;5.97;;
56083;SDS011;41958;52.416;13.428;2022-09-30T06:15:18;10.65;;;6.70;;
56083;SDS011;41958;52.416;13.428;2022-09-30T06:17:44;12.40;;;7.63;;
56083;SDS011;41958;52.416;13.428;2022-09-30T06:20:10;9.82;;;6.68;;
56083;SDS011;41958;52.416;13.428;2022-09-30T06:22:36;12.93;;;6.97;;
56083;SDS011;41958;52.416;13.428;2022-09-30T06:25:03;12.13;;;6.32;;
56083;SDS011;41958;52.416;13.428;2022-09-30T06:27:30;12.02;;;7.15;;
56083;SDS011;41958;52.416;13.428;2022-09-30T06:29:57;17.52;;;9.38;;
56083;SDS011;41958;52.416;13.428;2022-09-30T06:32:22;15.60;;;9.23;;
56083;SDS011;41958;52.416;13.428;2022-09-30T06:34:49;18.15;;;10.65;;
56083;SDS011;41958;52.416;13.428;2022-09-30T06:37:15;21.55;;;11.02;;
56083;SDS011;41958;52.416;13.428;2022-09-30T06:39:42;19.10;;;10.40;;
56083;SDS011;41958;52.416;13.428;2022-09-30T06:42:08;16.25;;;9.85;;
56083;SDS011;41958;52.416;13.428;2022-09-30T06:44:34;15.90;;;9.60;;
56083;SDS011;41958;52.416;13.428;2022-09-30T06:46:59;18.55;;;10.63;;
56083;SDS011;41958;52.416;13.428;2022-09-30T06:49:25;17.92;;;9.05;;
56083;SDS011;41958;52.416;13.428;2022-09-30T06:51:51;19.13;;;9.45;;
56083;SDS011;41958;52.416;13.428;2022-09-30T06:54:16;15.77;;;9.30;;
56083;SDS011;41958;52.416;13.428;2022-09-30T06:56:43;16.85;;;9.00;;
56083;SDS011;41958;52.416;13.428;2022-09-30T06:59:09;15.07;;;8.88;;
56083;SDS011;41958;52.416;13.428;2022-09-30T07:01:35;13.98;;;8.30;;
56083;SDS011;41958;52.416;13.428;2022-09-30T07:04:00;16.05;;;9.55;;
56083;SDS011;41958;52.416;13.428;2022-09-30T07:06:31;13.82;;;8.60;;
56083;SDS011;41958;52.416;13.428;2022-09-30T07:08:57;13.18;;;8.07;;
56083;SDS011;41958;52.416;13.428;2022-09-30T07:11:22;11.27;;;7.88;;
56083;SDS011;41958;52.416;13.428;2022-09-30T07:13:48;14.00;;;8.38;;
56083;SDS011;41958;52.416;13.428;2022-09-30T07:16:15;11.88;;;7.85;;
56083;SDS011;41958;52.416;13.428;2022-09-30T07:18:42;11.90;;;8.50;;
56083;SDS011;41958;52.416;13.428;2022-09-30T07:21:09;14.73;;;8.27;;
56083;SDS011;41958;52.416;13.428;2022-09-30T07:23:36;11.60;;;7.90;;
56083;SDS011;41958;52.416;13.428;2022-09-30T07:26:02;15.55;;;9.18;;
56083;SDS011;41958;52.416;13.428;2022-09-30T07:28:32;13.00;;;8.38;;
56083;SDS011;41958;52.416;13.428;2022-09-30T07:31:01;17.05;;;9.10;;
56083;SDS011;41958;52.416;13.428;2022-09-30T07:33:31;15.70;;;8.65;;
56083;SDS011;41958;52.416;13.428;2022-09-30T07:35:57;14.32;;;9.20;;
56083;SDS011;41958;52.416;13.428;2022-09-30T07:38:25;15.10;;;8.80;;
56083;SDS011;41958;52.416;13.428;2022-09-30T07:40:57;14.70;;;9.05;;
56083;SDS011;41958;52.416;13.428;2022-09-30T07:43:24;11.25;;;8.35;;
56083;SDS011;41958;52.416;13.428;2022-09-30T07:45:52;11.57;;;8.63;;
56083;SDS011;41958;52.416;13.428;2022-09-30T07:48:19;14.45;;;8.80;;
56083;SDS011;41958;52.416;13.428;2022-09-30T07:51:07;12.52;;;8.88;;
56083;SDS011;41958;52.416;13.428;2022-09-30T07:53:34;16.98;;;9.60;;
56083;SDS011;41958;52.416;13.428;2022-09-30T07:56:03;11.68;;;8.23;;
56083;SDS011;41958;52.416;13.428;2022-09-30T07:58:29;13.80;;;8.30;;
56083;SDS011;41958;52.416;13.428;2022-09-30T08:00:54;13.57;;;8.65;;
56083;SDS011;41958;52.416;13.428;2022-09-30T08:03:20;11.63;;;8.35;;
56083;SDS011;41958;52.416;13.428;2022-09-30T08:05:45;11.48;;;8.57;;
56083;SDS011;41958;52.416;13.428;2022-09-30T08:08:12;13.90;;;9.90;;
56083;SDS011;41958;52.416;13.428;2022-09-30T08:10:38;12.77;;;9.63;;
56083;SDS011;41958;52.416;13.428;2022-09-30T08:13:04;13.95;;;9.48;;
56083;SDS011;41958;52.416;13.428;2022-09-30T08:15:29;15.50;;;9.02;;
56083;SDS011;41958;52.416;13.428;2022-09-30T08:17:54;13.00;;;9.18;;
56083;SDS011;41958;52.416;13.428;2022-09-30T08:20:20;15.10;;;9.73;;
56083;SDS011;41958;52.416;13.428;2022-09-30T08:22:45;12.32;;;8.85;;
56083;SDS011;41958;52.416;13.428;2022-09-30T08:25:10;15.48;;;9.52;;
56083;SDS011;41958;52.416;13.428;2022-09-30T08:27:36;12.65;;;9.60;;
56083;SDS011;41958;52.416;13.428;2022-09-30T08:30:02;10.60;;;8.25;;
56083;SDS011;41958;52.416;13.428;2022-09-30T08:32:28;13.23;;;8.75;;
56083;SDS011;41958;52.416;13.428;2022-09-30T08:34:55;12.35;;;8.70;;
56083;SDS011;41958;52.416;13.428;2022-09-30T08:37:20;11.48;;;8.57;;
56083;SDS011;41958;52.416;13.428;2022-09-30T08:39:45;11.27;;;8.55;;
56083;SDS011;41958;52.416;13.428;2022-09-30T08:42:25;13.38;;;9.10;;
56083;SDS011;41958;52.416;13.428;2022-09-30T08:53:15;12.63;;;9.00;;
56083;SDS011;41958;52.416;13.428;2022-09-30T08:55:47;14.23;;;9.35;;
56083;SDS011;41958;52.416;13.428;2022-09-30T09:00:53;11.20;;;8.82;;
56083;SDS011;41958;52.416;13.428;2022-09-30T09:03:27;10.27;;;8.43;;
56083;SDS011;41958;52.416;13.428;2022-09-30T09:06:04;12.15;;;9.02;;
56083;SDS011;41958;52.416;13.428;2022-09-30T09:11:44;13.40;;;8.98;;
56083;SDS011;41958;52.416;13.428;2022-09-30T09:14:28;12.30;;;8.82;;
56083;SDS011;41958;52.416;13.428;2022-09-30T09:17:04;12.05;;;8.85;;
56083;SDS011;41958;52.416;13.428;2022-09-30T09:22:26;11.85;;;9.50;;
56083;SDS011;41958;52.416;13.428;2022-09-30T09:24:52;11.52;;;8.48;;
56083;SDS011;41958;52.416;13.428;2022-09-30T09:27:22;12.55;;;8.75;;
56083;SDS011;41958;52.416;13.428;2022-09-30T09:30:04;11.82;;;8.73;;
56083;SDS011;41958;52.416;13.428;2022-09-30T09:32:31;11.05;;;8.02;;
56083;SDS011;41958;52.416;13.428;2022-09-30T09:34:58;12.15;;;8.45;;
56083;SDS011;41958;52.416;13.428;2022-09-30T09:40:28;12.38;;;8.40;;
56083;SDS011;41958;52.416;13.428;2022-09-30T09:43:04;12.07;;;7.88;;
56083;SDS011;41958;52.416;13.428;2022-09-30T09:45:39;13.43;;;9.07;;
56083;SDS011;41958;52.416;13.428;2022-09-30T09:48:12;10.48;;;7.45;;
56083;SDS011;41958;52.416;13.428;2022-09-30T09:54:03;13.57;;;8.85;;
56083;SDS011;41958;52.416;13.428;2022-09-30T09:56:26;12.02;;;8.50;;
56083;SDS011;41958;52.416;13.428;2022-09-30T09:59:06;11.02;;;8.10;;
56083;SDS011;41958;52.416;13.428;2022-09-30T10:06:53;12.30;;;8.70;;
56083;SDS011;41958;52.416;13.428;2022-09-30T10:09:25;9.75;;;7.22;;
56083;SDS011;41958;52.416;13.428;2022-09-30T10:14:30;10.50;;;7.72;;
56083;SDS011;41958;52.416;13.428;2022-09-30T10:16:57;9.32;;;7.45;;
56083;SDS011;41958;52.416;13.428;2022-09-30T10:19:25;11.85;;;7.10;;
56083;SDS011;41958;52.416;13.428;2022-09-30T10:22:16;7.53;;;6.22;;
56083;SDS011;41958;52.416;13.428;2022-09-30T10:24:39;7.65;;;6.72;;
56083;SDS011;41958;52.416;13.428;2022-09-30T10:29:53;6.80;;;5.80;;
56083;SDS011;41958;52.416;13.428;2022-09-30T10:32:18;7.57;;;6.78;;
56083;SDS011;41958;52.416;13.428;2022-09-30T10:34:45;8.25;;;6.28;;
56083;SDS011;41958;52.416;13.428;2022-09-30T10:37:13;11.00;;;5.88;;
56083;SDS011;41958;52.416;13.428;2022-09-30T10:39:42;7.30;;;5.03;;
56083;SDS011;41958;52.416;13.428;2022-09-30T10:44:48;6.30;;;4.97;;
56083;SDS011;41958;52.416;13.428;2022-09-30T10:47:18;6.85;;;4.70;;
56083;SDS011;41958;52.416;13.428;2022-09-30T10:49:50;10.80;;;6.50;;
56083;SDS011;41958;52.416;13.428;2022-09-30T10:52:39;5.85;;;4.80;;
56083;SDS011;41958;52.416;13.428;2022-09-30T10:57:45;6.28;;;4.50;;
56083;SDS011;41958;52.416;13.428;2022-09-30T11:00:18;8.18;;;4.65;;
56083;SDS011;41958;52.416;13.428;2022-09-30T11:05:23;11.18;;;5.43;;
56083;SDS011;41958;52.416;13.428;2022-09-30T11:10:44;4.22;;;3.85;;
56083;SDS011;41958;52.416;13.428;2022-09-30T11:13:28;3.63;;;3.17;;
56083;SDS011;41958;52.416;13.428;2022-09-30T11:18:49;4.90;;;3.53;;
56083;SDS011;41958;52.416;13.428;2022-09-30T11:21:21;4.35;;;3.20;;
56083;SDS011;41958;52.416;13.428;2022-09-30T11:26:42;4.38;;;3.40;;
56083;SDS011;41958;52.416;13.428;2022-09-30T11:29:35;5.07;;;3.33;;
56083;SDS011;41958;52.416;13.428;2022-09-30T11:32:12;5.32;;;3.55;;
56083;SDS011;41958;52.416;13.428;2022-09-30T11:35:03;6.00;;;3.80;;
56083;SDS011;41958;52.416;13.428;2022-09-30T11:37:55;8.38;;;3.90;;
56083;SDS011;41958;52.416;13.428;2022-09-30T11:40:37;5.90;;;4.40;;
56083;SDS011;41958;52.416;13.428;2022-09-30T11:51:34;5.32;;;4.07;;
56083;SDS011;41958;52.416;13.428;2022-09-30T11:54:14;4.80;;;4.03;;
56083;SDS011;41958;52.416;13.428;2022-09-30T11:57:01;4.72;;;3.97;;
56083;SDS011;41958;52.416;13.428;2022-09-30T11:59:37;4.22;;;3.83;;
56083;SDS011;41958;52.416;13.428;2022-09-30T12:02:20;5.25;;;3.20;;
56083;SDS011;41958;52.416;13.428;2022-09-30T12:04:54;4.18;;;2.85;;
56083;SDS011;41958;52.416;13.428;2022-09-30T12:07:35;4.72;;;4.28;;
56083;SDS011;41958;52.416;13.428;2022-09-30T12:10:27;4.10;;;3.10;;
56083;SDS011;41958;52.416;13.428;2022-09-30T12:12:58;5.40;;;3.65;;
56083;SDS011;41958;52.416;13.428;2022-09-30T12:15:27;4.45;;;2.22;;
56083;SDS011;41958;52.416;13.428;2022-09-30T12:20:45;2.80;;;2.15;;
56083;SDS011;41958;52.416;13.428;2022-09-30T12:23:16;3.05;;;2.35;;
56083;SDS011;41958;52.416;13.428;2022-09-30T12:25:58;1.90;;;1.80;;
56083;SDS011;41958;52.416;13.428;2022-09-30T12:28:26;2.05;;;1.95;;
56083;SDS011;41958;52.416;13.428;2022-09-30T12:45:30;1.67;;;1.30;;
56083;SDS011;41958;52.416;13.428;2022-09-30T12:48:09;1.10;;;1.00;;
56083;SDS011;41958;52.416;13.428;2022-09-30T12:50:40;1.17;;;1.00;;
56083;SDS011;41958;52.416;13.428;2022-09-30T12:53:18;1.67;;;1.20;;
56083;SDS011;41958;52.416;13.428;2022-09-30T12:55:52;2.50;;;1.10;;
56083;SDS011;41958;52.416;13.428;2022-09-30T12:58:25;1.55;;;1.38;;
56083;SDS011;41958;52.416;13.428;2022-09-30T13:00:58;2.47;;;1.67;;
56083;SDS011;41958;52.416;13.428;2022-09-30T13:03:25;4.85;;;1.60;;
56083;SDS011;41958;52.416;13.428;2022-09-30T13:05:52;1.35;;;1.23;;
56083;SDS011;41958;52.416;13.428;2022-09-30T13:10:46;2.17;;;1.23;;
56083;SDS011;41958;52.416;13.428;2022-09-30T13:13:24;1.23;;;1.10;;
56083;SDS011;41958;52.416;13.428;2022-09-30T13:15:52;2.35;;;1.70;;
56083;SDS011;41958;52.416;13.428;2022-09-30T13:28:52;1.30;;;1.20;;
56083;SDS011;41958;52.416;13.428;2022-09-30T13:31:22;1.00;;;1.00;;
56083;SDS011;41958;52.416;13.428;2022-09-30T13:39:17;1.45;;;1.00;;
56083;SDS011;41958;52.416;13.428;2022-09-30T13:41:52;2.10;;;1.00;;
56083;SDS011;41958;52.416;13.428;2022-09-30T13:44:30;1.33;;;1.00;;
56083;SDS011;41958;52.416;13.428;2022-09-30T13:47:09;1.73;;;0.95;;
56083;SDS011;41958;52.416;13.428;2022-09-30T13:49:42;1.35;;;1.13;;
56083;SDS011;41958;52.416;13.428;2022-09-30T13:52:27;1.67;;;0.90;;
56083;SDS011;41958;52.416;13.428;2022-09-30T13:54:57;0.98;;;0.98;;
56083;SDS011;41958;52.416;13.428;2022-09-30T13:57:33;2.55;;;1.10;;
56083;SDS011;41958;52.416;13.428;2022-09-30T14:00:15;1.77;;;0.95;;
56083;SDS011;41958;52.416;13.428;2022-09-30T14:05:43;17.63;;;3.50;;
56083;SDS011;41958;52.416;13.428;2022-09-30T14:08:33;1.65;;;1.00;;
56083;SDS011;41958;52.416;13.428;2022-09-30T14:11:13;2.10;;;0.88;;
56083;SDS011;41958;52.416;13.428;2022-09-30T14:22:34;2.05;;;1.10;;
56083;SDS011;41958;52.416;13.428;2022-09-30T14:25:00;2.30;;;1.08;;
56083;SDS011;41958;52.416;13.428;2022-09-30T14:27:35;1.42;;;0.95;;
56083;SDS011;41958;52.416;13.428;2022-09-30T14:30:22;1.17;;;1.05;;
56083;SDS011;41958;52.416;13.428;2022-09-30T14:32:53;1.30;;;1.17;;
56083;SDS011;41958;52.416;13.428;2022-09-30T14:37:49;3.33;;;0.80;;
56083;SDS011;41958;52.416;13.428;2022-09-30T14:40:18;1.13;;;1.00;;
56083;SDS011;41958;52.416;13.428;2022-09-30T14:42:48;1.63;;;1.13;;
56083;SDS011;41958;52.416;13.428;2022-09-30T14:45:19;2.05;;;0.98;;
56083;SDS011;41958;52.416;13.428;2022-09-30T14:47:50;1.08;;;0.98;;
56083;SDS011;41958;52.416;13.428;2022-09-30T14:50:20;0.85;;;0.85;;
56083;SDS011;41958;52.416;13.428;2022-09-30T14:52:50;2.17;;;1.25;;
56083;SDS011;41958;52.416;13.428;2022-09-30T14:57:49;1.13;;;1.02;;
56083;SDS011;41958;52.416;13.428;2022-09-30T15:00:18;1.55;;;1.40;;
56083;SDS011;41958;52.416;13.428;2022-09-30T15:02:52;1.23;;;1.05;;
56083;SDS011;41958;52.416;13.428;2022-09-30T15:05:17;1.38;;;1.30;;
56083;SDS011;41958;52.416;13.428;2022-09-30T15:07:42;1.42;;;1.25;;
56083;SDS011;41958;52.416;13.428;2022-09-30T15:10:15;1.60;;;1.00;;
56083;SDS011;41958;52.416;13.428;2022-09-30T15:12:43;2.65;;;1.20;;
56083;SDS011;41958;52.416;13.428;2022-09-30T15:15:23;1.70;;;1.10;;
56083;SDS011;41958;52.416;13.428;2022-09-30T15:20:56;1.60;;;1.05;;
56083;SDS011;41958;52.416;13.428;2022-09-30T15:23:35;1.63;;;1.40;;
56083;SDS011;41958;52.416;13.428;2022-09-30T15:26:03;2.22;;;1.60;;
56083;SDS011;41958;52.416;13.428;2022-09-30T15:28:30;4.18;;;1.65;;
56083;SDS011;41958;52.416;13.428;2022-09-30T15:30:57;1.92;;;1.35;;
56083;SDS011;41958;52.416;13.428;2022-09-30T15:33:23;1.65;;;1.52;;
56083;SDS011;41958;52.416;13.428;2022-09-30T15:35:59;2.25;;;1.60;;
56083;SDS011;41958;52.416;13.428;2022-09-30T15:38:26;2.45;;;1.70;;
56083;SDS011;41958;52.416;13.428;2022-09-30T15:41:06;3.28;;;1.92;;
56083;SDS011;41958;52.416;13.428;2022-09-30T15:43:37;1.67;;;1.58;;
56083;SDS011;41958;52.416;13.428;2022-09-30T15:46:16;3.08;;;1.60;;
56083;SDS011;41958;52.416;13.428;2022-09-30T15:48:45;2.35;;;1.70;;
56083;SDS011;41958;52.416;13.428;2022-09-30T15:51:31;1.55;;;1.30;;
56083;SDS011;41958;52.416;13.428;2022-09-30T15:54:23;1.73;;;1.63;;
56083;SDS011;41958;52.416;13.428;2022-09-30T15:57:01;2.38;;;1.73;;
56083;SDS011;41958;52.416;13.428;2022-09-30T15:59:59;1.77;;;1.48;;
56083;SDS011;41958;52.416;13.428;2022-09-30T16:02:26;2.47;;;1.90;;
56083;SDS011;41958;52.416;13.428;2022-09-30T16:04:53;4.25;;;1.88;;
56083;SDS011;41958;52.416;13.428;2022-09-30T16:07:20;2.42;;;2.22;;
56083;SDS011;41958;52.416;13.428;2022-09-30T16:09:50;2.58;;;2.15;;
56083;SDS011;41958;52.416;13.428;2022-09-30T16:12:16;3.08;;;2.20;;
56083;SDS011;41958;52.416;13.428;2022-09-30T16:14:47;2.10;;;1.92;;
56083;SDS011;41958;52.416;13.428;2022-09-30T16:17:38;2.53;;;1.40;;
56083;SDS011;41958;52.416;13.428;2022-09-30T16:20:20;1.88;;;1.77;;
56083;SDS011;41958;52.416;13.428;2022-09-30T16:25:27;2.78;;;1.70;;
56083;SDS011;41958;52.416;13.428;2022-09-30T16:28:09;2.50;;;1.77;;
56083;SDS011;41958;52.416;13.428;2022-09-30T16:30:36;3.22;;;1.63;;
56083;SDS011;41958;52.416;13.428;2022-09-30T16:33:06;2.22;;;1.70;;
56083;SDS011;41958;52.416;13.428;2022-09-30T16:35:31;1.58;;;1.48;;
56083;SDS011;41958;52.416;13.428;2022-09-30T16:38:01;2.60;;;1.90;;
56083;SDS011;41958;52.416;13.428;2022-09-30T16:40:29;1.80;;;1.70;;
56083;SDS011;41958;52.416;13.428;2022-09-30T16:42:55;1.90;;;1.80;;
56083;SDS011;41958;52.416;13.428;2022-09-30T16:45:25;2.28;;;1.98;;
56083;SDS011;41958;52.416;13.428;2022-09-30T16:47:51;4.38;;;1.88;;
56083;SDS011;41958;52.416;13.428;2022-09-30T16:50:21;2.90;;;2.25;;
56083;SDS011;41958;52.416;13.428;2022-09-30T16:52:52;2.15;;;2.00;;
56083;SDS011;41958;52.416;13.428;2022-09-30T16:55:17;4.90;;;2.40;;
56083;SDS011;41958;52.416;13.428;2022-09-30T16:57:43;2.25;;;2.05;;
56083;SDS011;41958;52.416;13.428;2022-09-30T17:00:10;5.10;;;2.30;;
56083;SDS011;41958;52.416;13.428;2022-09-30T17:02:37;2.78;;;2.05;;
56083;SDS011;41958;52.416;13.428;2022-09-30T17:05:03;3.63;;;2.50;;
56083;SDS011;41958;52.416;13.428;2022-09-30T17:07:29;2.83;;;2.50;;
56083;SDS011;41958;52.416;13.428;2022-09-30T17:09:54;2.67;;;2.47;;
56083;SDS011;41958;52.416;13.428;2022-09-30T17:12:20;3.00;;;2.30;;
56083;SDS011;41958;52.416;13.428;2022-09-30T17:14:45;2.35;;;2.05;;
56083;SDS011;41958;52.416;13.428;2022-09-30T17:17:10;2.80;;;2.60;;